createdAt,value
2023-02-28T00:00:32.272Z,9.65
2023-02-28T00:02:59.814Z,9.57
2023-02-28T00:05:28.014Z,9.02
2023-02-28T00:07:55.929Z,7.75
2023-02-28T00:10:25.664Z,8.05
2023-02-28T00:12:53.509Z,8.50
2023-02-28T00:15:21.090Z,8.27
2023-02-28T00:17:48.396Z,8.60
2023-02-28T00:20:16.664Z,7.18
2023-02-28T00:22:45.636Z,8.73
2023-02-28T00:25:14.406Z,7.45
2023-02-28T00:27:41.731Z,8.03
2023-02-28T00:30:14.339Z,8.20
2023-02-28T00:32:41.619Z,9.50
2023-02-28T00:35:09.318Z,7.53
2023-02-28T00:37:36.628Z,8.65
2023-02-28T00:40:06.116Z,9.30
2023-02-28T00:42:34.396Z,7.30
2023-02-28T00:45:02.175Z,7.28
2023-02-28T00:47:29.469Z,8.85
2023-02-28T00:49:56.869Z,9.00
2023-02-28T00:52:24.216Z,11.40
2023-02-28T00:54:51.474Z,10.57
2023-02-28T00:57:18.786Z,9.73
2023-02-28T00:59:46.333Z,8.85
2023-02-28T01:02:14.732Z,9.05
2023-02-28T01:04:42.052Z,8.23
2023-02-28T01:07:09.749Z,10.90
2023-02-28T01:09:37.050Z,12.07
2023-02-28T01:12:05.736Z,12.00
2023-02-28T01:14:34.038Z,14.07
2023-02-28T01:17:01.427Z,10.43
2023-02-28T01:19:28.731Z,13.18
2023-02-28T01:21:56.085Z,10.35
2023-02-28T01:24:23.431Z,12.57
2023-02-28T01:26:50.688Z,10.82
2023-02-28T01:29:18.056Z,13.03
2023-02-28T01:31:46.407Z,11.48
2023-02-28T01:34:13.661Z,11.45
2023-02-28T01:36:40.929Z,10.30
2023-02-28T01:39:08.266Z,9.75
2023-02-28T01:41:35.635Z,9.73
2023-02-28T01:44:07.703Z,11.10
2023-02-28T01:46:35.907Z,9.43
2023-02-28T01:49:05.595Z,13.15
2023-02-28T01:51:35.394Z,9.35
2023-02-28T01:54:14.742Z,9.63
2023-02-28T01:56:58.259Z,11.00
2023-02-28T01:59:34.201Z,16.15
2023-02-28T02:02:02.221Z,11.00
2023-02-28T02:04:37.330Z,10.30
2023-02-28T02:07:04.814Z,9.67
2023-02-28T02:09:32.085Z,9.90
2023-02-28T02:11:59.351Z,12.23
2023-02-28T02:14:45.117Z,9.15
2023-02-28T02:17:46.866Z,12.48
2023-02-28T02:20:59.744Z,10.53
2023-02-28T02:24:19.576Z,9.80
2023-02-28T02:27:07.241Z,11.32
2023-02-28T02:30:04.323Z,11.55
2023-02-28T02:32:49.682Z,10.48
2023-02-28T02:35:27.721Z,9.47
2023-02-28T02:38:13.216Z,10.18
2023-02-28T02:40:48.122Z,9.10
2023-02-28T02:43:20.258Z,11.30
2023-02-28T02:45:50.766Z,8.57
2023-02-28T02:48:19.068Z,7.73
2023-02-28T02:50:52.449Z,8.68
2023-02-28T02:53:21.545Z,9.60
2023-02-28T02:55:54.057Z,10.20
2023-02-28T02:58:23.555Z,7.60
2023-02-28T03:00:54.336Z,6.80
2023-02-28T03:03:29.900Z,7.78
2023-02-28T03:06:01.553Z,8.57
2023-02-28T03:08:29.740Z,9.95
2023-02-28T03:10:58.466Z,10.57
2023-02-28T03:13:45.708Z,9.13
2023-02-28T03:16:40.405Z,6.82
2023-02-28T03:19:26.325Z,7.07
2023-02-28T03:22:03.389Z,8.73
2023-02-28T03:24:38.176Z,8.80
2023-02-28T03:27:18.110Z,9.10
2023-02-28T03:29:56.480Z,7.25
2023-02-28T03:32:31.090Z,9.02
2023-02-28T03:35:15.313Z,8.43
2023-02-28T03:37:45.800Z,7.88
2023-02-28T03:40:15.298Z,8.87
2023-02-28T03:42:44.102Z,8.27
2023-02-28T03:45:32.178Z,8.63
2023-02-28T03:48:12.427Z,6.80
2023-02-28T03:50:41.392Z,10.45
2023-02-28T03:53:30.533Z,7.50
2023-02-28T03:56:01.512Z,7.10
2023-02-28T03:58:43.200Z,9.50
2023-02-28T04:01:22.801Z,7.63
2023-02-28T04:03:50.448Z,8.82
2023-02-28T04:06:21.949Z,8.53
2023-02-28T04:08:49.364Z,9.73
2023-02-28T04:11:21.124Z,8.70
2023-02-28T04:13:48.436Z,10.73
2023-02-28T04:16:28.493Z,7.93
2023-02-28T04:19:03.820Z,8.30
2023-02-28T04:21:32.231Z,7.55
2023-02-28T04:24:01.792Z,9.70
2023-02-28T04:26:32.955Z,8.32
2023-02-28T04:29:00.500Z,6.22
2023-02-28T04:31:28.176Z,8.10
2023-02-28T04:33:55.850Z,8.48
2023-02-28T04:36:24.268Z,9.73
2023-02-28T04:38:51.626Z,8.20
2023-02-28T04:41:19.736Z,9.10
2023-02-28T04:43:47.135Z,8.80
2023-02-28T04:46:14.547Z,9.10
2023-02-28T04:48:41.965Z,10.50
2023-02-28T04:51:10.743Z,9.20
2023-02-28T04:53:38.606Z,8.63
2023-02-28T04:56:07.074Z,8.50
2023-02-28T04:58:34.830Z,12.68
2023-02-28T05:01:13.724Z,9.25
2023-02-28T05:03:43.768Z,8.85
2023-02-28T05:06:11.644Z,8.50
2023-02-28T05:08:38.919Z,10.47
2023-02-28T05:11:08.283Z,8.70
2023-02-28T05:13:37.389Z,9.10
2023-02-28T05:16:05.113Z,10.07
2023-02-28T05:18:32.477Z,10.60
2023-02-28T05:21:03.210Z,9.37
2023-02-28T05:23:30.718Z,10.38
2023-02-28T05:25:58.078Z,10.52
2023-02-28T05:28:25.429Z,10.35
2023-02-28T05:30:52.963Z,8.88
2023-02-28T05:33:20.356Z,9.93
2023-02-28T05:35:47.773Z,15.23
2023-02-28T05:38:15.566Z,9.10
2023-02-28T05:40:42.899Z,10.00
2023-02-28T05:43:11.619Z,10.73
2023-02-28T05:45:39.196Z,9.37
2023-02-28T05:48:06.787Z,9.77
2023-02-28T05:50:37.044Z,9.50
2023-02-28T05:53:04.470Z,11.18
2023-02-28T05:55:31.900Z,10.70
2023-02-28T05:57:59.287Z,11.20
2023-02-28T06:00:26.702Z,11.60
2023-02-28T06:02:57.250Z,10.32
2023-02-28T06:05:29.850Z,8.05
2023-02-28T06:07:57.240Z,9.25
2023-02-28T06:10:24.948Z,8.70
2023-02-28T06:12:52.214Z,6.93
2023-02-28T06:15:19.620Z,9.98
2023-02-28T06:17:47.586Z,10.27
2023-02-28T06:20:14.985Z,11.68
2023-02-28T06:22:42.277Z,10.45
2023-02-28T06:25:10.435Z,11.75
2023-02-28T06:27:37.734Z,8.50
2023-02-28T06:30:05.398Z,10.63
2023-02-28T06:32:32.666Z,11.93
2023-02-28T06:34:59.939Z,11.68
2023-02-28T06:37:27.302Z,10.63
2023-02-28T06:39:56.893Z,9.80
2023-02-28T06:42:29.744Z,11.43
2023-02-28T06:44:57.305Z,10.63
2023-02-28T06:47:24.663Z,9.32
2023-02-28T06:49:52.096Z,12.18
2023-02-28T06:52:19.353Z,10.73
2023-02-28T06:54:47.226Z,11.90
2023-02-28T06:57:14.587Z,12.35
2023-02-28T06:59:42.062Z,9.35
2023-02-28T07:02:09.521Z,10.00
2023-02-28T07:04:37.808Z,10.43
2023-02-28T07:07:08.632Z,9.80
2023-02-28T07:09:36.139Z,11.07
2023-02-28T07:12:04.848Z,9.20
2023-02-28T07:14:32.304Z,10.35
2023-02-28T07:16:59.699Z,9.23
2023-02-28T07:19:27.063Z,9.05
2023-02-28T07:21:54.372Z,10.57
2023-02-28T07:24:21.828Z,12.02
2023-02-28T07:26:49.191Z,9.98
2023-02-28T07:29:19.601Z,8.77
2023-02-28T07:31:47.984Z,10.57
2023-02-28T07:34:17.791Z,11.18
2023-02-28T07:36:45.310Z,10.93
2023-02-28T07:39:12.628Z,10.30
2023-02-28T07:41:44.580Z,12.32
2023-02-28T07:44:13.115Z,10.93
2023-02-28T07:46:40.704Z,8.43
2023-02-28T07:49:10.679Z,11.40
2023-02-28T07:51:37.984Z,9.45
2023-02-28T07:54:06.798Z,9.32
2023-02-28T07:56:34.956Z,11.82
2023-02-28T07:59:02.700Z,9.70
2023-02-28T08:01:30.244Z,11.18
2023-02-28T08:03:58.110Z,10.73
2023-02-28T08:06:25.908Z,9.38
2023-02-28T08:08:53.795Z,10.55
2023-02-28T08:11:21.064Z,9.98
2023-02-28T08:13:48.359Z,12.18
2023-02-28T08:16:23.349Z,13.18
2023-02-28T08:18:54.180Z,10.65
2023-02-28T08:21:23.889Z,11.88
2023-02-28T08:23:51.671Z,13.80
2023-02-28T08:26:19.336Z,12.23
2023-02-28T08:28:46.733Z,11.13
2023-02-28T08:31:16.657Z,12.55
2023-02-28T08:33:45.601Z,12.10
2023-02-28T08:36:13.385Z,11.65
2023-02-28T08:38:40.931Z,11.60
2023-02-28T08:41:10.019Z,12.32
2023-02-28T08:43:37.548Z,12.05
2023-02-28T08:46:05.512Z,13.00
2023-02-28T08:48:34.161Z,11.45
2023-02-28T08:51:10.554Z,12.32
2023-02-28T08:53:38.787Z,12.95
2023-02-28T08:56:07.822Z,12.50
2023-02-28T08:58:35.361Z,12.40
2023-02-28T09:01:09.214Z,12.75
2023-02-28T09:03:38.858Z,11.63
2023-02-28T09:06:07.499Z,12.30
2023-02-28T09:08:35.286Z,12.30
2023-02-28T09:11:03.446Z,14.38
2023-02-28T09:13:36.531Z,13.13
2023-02-28T09:16:05.688Z,12.90
2023-02-28T09:18:38.582Z,12.98
2023-02-28T09:21:07.461Z,11.82
2023-02-28T09:23:35.240Z,11.23
2023-02-28T09:26:02.491Z,12.13
2023-02-28T09:28:29.767Z,10.75
2023-02-28T09:31:00.026Z,14.30
2023-02-28T09:33:27.655Z,12.35
2023-02-28T09:38:56.739Z,12.23
2023-02-28T09:41:29.468Z,11.48
2023-02-28T09:43:57.932Z,10.07
2023-02-28T09:46:43.597Z,11.73
2023-02-28T09:49:16.811Z,11.10
2023-02-28T09:51:46.968Z,10.90
2023-02-28T09:54:23.310Z,12.18
2023-02-28T09:57:15.457Z,10.70
2023-02-28T09:59:54.115Z,11.48
2023-02-28T10:02:40.383Z,12.00
2023-02-28T10:05:16.319Z,11.15
2023-02-28T10:08:15.944Z,11.13
2023-02-28T10:11:07.424Z,10.00
2023-02-28T10:13:52.034Z,10.30
2023-02-28T10:16:33.334Z,11.80
2023-02-28T10:19:21.418Z,10.27
2023-02-28T10:22:16.343Z,10.77
2023-02-28T10:24:45.810Z,11.13
2023-02-28T10:27:20.677Z,10.73
2023-02-28T10:29:53.950Z,11.30
2023-02-28T10:32:29.420Z,11.65
2023-02-28T10:35:20.218Z,12.10
2023-02-28T10:37:53.338Z,10.80
2023-02-28T10:40:24.638Z,12.60
2023-02-28T10:43:16.180Z,12.70
2023-02-28T10:46:00.813Z,11.27
2023-02-28T10:48:42.913Z,11.52
2023-02-28T10:51:15.144Z,10.43
2023-02-28T10:54:01.074Z,10.30
2023-02-28T10:56:30.278Z,11.27
2023-02-28T10:59:23.285Z,10.48
2023-02-28T11:01:53.880Z,9.50
2023-02-28T11:04:33.891Z,10.13
2023-02-28T11:07:02.304Z,9.18
2023-02-28T11:09:39.856Z,8.73
2023-02-28T11:12:09.679Z,8.80
2023-02-28T11:14:54.146Z,10.35
2023-02-28T11:17:29.750Z,9.60
2023-02-28T11:19:59.361Z,9.40
2023-02-28T11:22:32.779Z,9.23
2023-02-28T11:25:07.788Z,11.52
2023-02-28T11:27:38.641Z,8.75
2023-02-28T11:30:10.068Z,7.60
2023-02-28T11:32:40.929Z,7.80
2023-02-28T11:35:11.344Z,8.18
2023-02-28T11:37:39.469Z,10.05
2023-02-28T11:40:13.947Z,7.47
2023-02-28T11:42:58.915Z,10.17
2023-02-28T11:45:38.495Z,7.50
2023-02-28T11:48:49.531Z,8.90
2023-02-28T11:51:28.911Z,8.05
2023-02-28T11:54:26.936Z,9.48
2023-02-28T11:56:58.275Z,8.97
2023-02-28T11:59:51.261Z,8.82
2023-02-28T12:02:31.633Z,9.13
2023-02-28T12:05:23.727Z,7.45
2023-02-28T12:07:56.111Z,9.35
2023-02-28T12:10:28.685Z,7.37
2023-02-28T12:12:59.389Z,7.90
2023-02-28T12:16:23.124Z,6.65
2023-02-28T12:18:55.223Z,7.70
2023-02-28T12:21:43.719Z,9.90
2023-02-28T12:24:16.524Z,7.37
2023-02-28T12:26:45.424Z,7.03
2023-02-28T12:29:16.204Z,7.43
2023-02-28T12:31:49.572Z,8.70
2023-02-28T12:34:24.221Z,9.30
2023-02-28T12:36:51.834Z,8.13
2023-02-28T12:39:34.456Z,9.80
2023-02-28T12:42:13.868Z,8.18
2023-02-28T12:44:47.608Z,7.85
2023-02-28T12:47:18.954Z,7.50
2023-02-28T12:49:47.665Z,10.50
2023-02-28T12:52:17.523Z,10.45
2023-02-28T12:55:01.651Z,8.55
2023-02-28T12:57:51.473Z,7.68
2023-02-28T13:00:23.932Z,9.88
2023-02-28T13:03:19.364Z,8.03
2023-02-28T13:06:36.533Z,9.20
2023-02-28T13:09:17.889Z,9.40
2023-02-28T13:11:52.198Z,7.93
2023-02-28T13:14:42.586Z,8.20
2023-02-28T13:17:13.248Z,7.20
2023-02-28T13:19:45.338Z,8.05
2023-02-28T13:22:42.472Z,7.22
2023-02-28T13:25:34.543Z,7.95
2023-02-28T13:28:05.313Z,8.43
2023-02-28T13:30:58.513Z,7.10
2023-02-28T13:33:35.689Z,6.60
2023-02-28T13:36:14.955Z,7.97
2023-02-28T13:38:46.345Z,7.85
2023-02-28T13:41:36.257Z,8.45
2023-02-28T13:44:06.998Z,8.03
2023-02-28T13:46:37.160Z,7.88
2023-02-28T13:49:38.087Z,6.78
2023-02-28T13:52:08.495Z,10.18
2023-02-28T13:54:59.670Z,7.45
2023-02-28T13:57:45.997Z,7.63
2023-02-28T14:00:32.620Z,9.13
2023-02-28T14:03:06.046Z,8.02
2023-02-28T14:05:34.215Z,6.55
2023-02-28T14:08:07.155Z,7.53
2023-02-28T14:10:46.622Z,7.13
2023-02-28T14:13:15.128Z,7.85
2023-02-28T14:15:49.427Z,8.50
2023-02-28T14:18:30.239Z,8.48
2023-02-28T14:21:05.061Z,7.75
2023-02-28T14:23:47.395Z,9.07
2023-02-28T14:26:38.139Z,6.88
2023-02-28T14:29:43.391Z,8.65
2023-02-28T14:32:21.001Z,8.95
2023-02-28T14:34:54.275Z,8.30
2023-02-28T14:37:28.198Z,7.97
2023-02-28T14:39:57.254Z,8.35
2023-02-28T14:42:35.282Z,8.05
2023-02-28T14:45:03.178Z,7.03
2023-02-28T14:47:32.909Z,6.00
2023-02-28T14:50:00.758Z,8.47
2023-02-28T14:52:30.566Z,8.32
2023-02-28T14:55:12.800Z,10.32
2023-02-28T14:58:05.396Z,8.43
2023-02-28T15:00:59.101Z,7.82
2023-02-28T15:03:39.365Z,7.83
2023-02-28T15:06:13.462Z,10.02
2023-02-28T15:08:46.799Z,9.15
2023-02-28T15:11:15.963Z,8.38
2023-02-28T15:13:46.078Z,10.57
2023-02-28T15:16:45.795Z,7.00
2023-02-28T15:19:26.362Z,8.02
2023-02-28T15:22:22.870Z,8.00
2023-02-28T15:24:53.185Z,8.43
2023-02-28T15:27:24.818Z,8.25
2023-02-28T15:29:55.341Z,8.43
2023-02-28T15:32:25.508Z,8.00
2023-02-28T15:34:52.907Z,7.75
2023-02-28T15:37:47.103Z,8.68
2023-02-28T15:40:32.466Z,7.90
2023-02-28T15:43:16.917Z,8.00
2023-02-28T15:45:49.389Z,8.85
2023-02-28T15:48:22.516Z,8.77
2023-02-28T15:50:54.916Z,8.10
2023-02-28T15:53:27.343Z,10.82
2023-02-28T15:55:57.227Z,9.93
2023-02-28T15:58:25.146Z,9.07
2023-02-28T16:01:21.663Z,8.40
2023-02-28T16:06:45.438Z,8.30
2023-02-28T16:09:14.660Z,8.20
2023-02-28T16:11:46.439Z,8.93
2023-02-28T16:14:36.451Z,8.80
2023-02-28T16:17:20.702Z,9.30
2023-02-28T16:19:48.082Z,8.23
2023-02-28T16:22:15.412Z,7.07
2023-02-28T16:24:43.849Z,8.18
2023-02-28T16:27:17.730Z,10.52
2023-02-28T16:29:46.054Z,10.07
2023-02-28T16:32:15.247Z,11.15
2023-02-28T16:34:43.919Z,10.97
2023-02-28T16:37:15.981Z,9.73
2023-02-28T16:39:43.610Z,9.48
2023-02-28T16:42:31.074Z,10.00
2023-02-28T16:45:29.477Z,11.07
2023-02-28T16:47:57.018Z,10.43
2023-02-28T16:50:28.631Z,13.43
2023-02-28T16:52:56.206Z,9.77
2023-02-28T16:55:24.094Z,11.25
2023-02-28T16:57:59.037Z,10.05
2023-02-28T17:00:26.704Z,11.27
2023-02-28T17:02:54.699Z,11.70
2023-02-28T17:05:22.205Z,11.15
2023-02-28T17:07:49.540Z,13.30
2023-02-28T17:10:16.761Z,13.40
2023-02-28T17:12:44.247Z,13.07
2023-02-28T17:15:13.178Z,16.35
2023-02-28T17:17:43.663Z,20.95
2023-02-28T17:20:15.614Z,12.98
2023-02-28T17:22:42.970Z,13.85
2023-02-28T17:25:10.869Z,12.73
2023-02-28T17:27:38.194Z,11.60
2023-02-28T17:30:21.735Z,18.30
2023-02-28T17:32:49.042Z,15.00
2023-02-28T17:35:16.493Z,14.52
2023-02-28T17:37:43.879Z,17.58
2023-02-28T17:40:18.921Z,26.92
2023-02-28T17:42:46.978Z,23.85
2023-02-28T17:45:15.013Z,28.30
2023-02-28T17:47:42.967Z,29.95
2023-02-28T17:50:15.280Z,33.85
2023-02-28T17:52:42.577Z,34.22
2023-02-28T17:55:10.548Z,37.40
2023-02-28T17:57:37.823Z,39.63
2023-02-28T18:00:07.801Z,38.95
2023-02-28T18:02:44.239Z,43.00
2023-02-28T18:05:11.604Z,34.97
2023-02-28T18:07:39.510Z,41.03
2023-02-28T18:10:07.977Z,40.63
2023-02-28T18:12:35.261Z,43.03
2023-02-28T18:15:02.591Z,44.83
2023-02-28T18:17:29.844Z,42.00
2023-02-28T18:19:57.137Z,45.20
2023-02-28T18:22:24.460Z,42.92
2023-02-28T18:24:51.848Z,47.03
2023-02-28T18:27:19.153Z,58.13
2023-02-28T18:29:46.422Z,61.65
2023-02-28T18:32:13.773Z,52.00
2023-02-28T18:34:41.203Z,50.20
2023-02-28T18:37:08.590Z,45.70
2023-02-28T18:39:35.849Z,44.53
2023-02-28T18:42:03.299Z,50.35
2023-02-28T18:44:30.591Z,45.35
2023-02-28T18:46:57.968Z,44.03
2023-02-28T18:49:25.318Z,44.60
2023-02-28T18:51:53.378Z,41.30
2023-02-28T18:54:20.612Z,42.83
2023-02-28T18:56:47.936Z,48.55
2023-02-28T18:59:15.205Z,46.50
2023-02-28T19:01:42.575Z,43.78
2023-02-28T19:04:14.745Z,38.58
2023-02-28T19:06:42.341Z,45.65
2023-02-28T19:09:10.129Z,48.67
2023-02-28T19:11:37.483Z,43.50
2023-02-28T19:14:04.831Z,36.28
2023-02-28T19:16:32.765Z,32.67
2023-02-28T19:19:00.234Z,39.03
2023-02-28T19:21:27.692Z,40.08
2023-02-28T19:23:54.979Z,42.72
2023-02-28T19:26:23.462Z,46.22
2023-02-28T19:28:50.821Z,40.80
2023-02-28T19:31:22.782Z,43.67
2023-02-28T19:33:52.872Z,40.63
2023-02-28T19:36:20.645Z,42.80
2023-02-28T19:38:48.060Z,38.65
2023-02-28T19:41:15.694Z,40.60
2023-02-28T19:43:43.081Z,44.30
2023-02-28T19:46:10.926Z,43.63
2023-02-28T19:48:38.840Z,38.70
2023-02-28T19:51:09.426Z,38.38
2023-02-28T19:53:43.221Z,43.05
2023-02-28T19:56:12.076Z,44.13
2023-02-28T19:58:41.762Z,46.08
2023-02-28T20:01:17.090Z,40.97
2023-02-28T20:03:52.660Z,36.25
2023-02-28T20:09:03.654Z,29.42
2023-02-28T20:11:32.228Z,31.10
2023-02-28T20:14:02.517Z,29.00
2023-02-28T20:16:31.543Z,30.83
2023-02-28T20:18:59.753Z,28.05
2023-02-28T20:21:27.494Z,26.83
2023-02-28T20:23:56.030Z,25.63
2023-02-28T20:26:28.595Z,25.40
2023-02-28T20:28:56.881Z,23.25
2023-02-28T20:31:25.591Z,24.00
2023-02-28T20:33:53.350Z,23.40
2023-02-28T20:36:22.949Z,19.63
2023-02-28T20:38:51.925Z,19.58
2023-02-28T20:41:23.576Z,19.23
2023-02-28T20:44:04.218Z,17.52
2023-02-28T20:46:32.247Z,17.73
2023-02-28T20:48:59.717Z,16.83
2023-02-28T20:51:27.076Z,15.82
2023-02-28T20:53:54.379Z,15.93
2023-02-28T20:56:23.933Z,14.52
2023-02-28T20:58:53.234Z,17.02
2023-02-28T21:01:26.387Z,17.92
2023-02-28T21:03:56.213Z,16.35
2023-02-28T21:06:25.812Z,14.80
2023-02-28T21:08:53.114Z,17.90
2023-02-28T21:11:22.775Z,16.63
2023-02-28T21:13:51.609Z,17.30
2023-02-28T21:16:21.101Z,15.85
2023-02-28T21:18:48.610Z,15.63
2023-02-28T21:21:17.609Z,14.32
2023-02-28T21:23:48.287Z,15.02
2023-02-28T21:26:17.452Z,16.85
2023-02-28T21:28:48.893Z,18.92
2023-02-28T21:31:17.143Z,17.05
2023-02-28T21:33:44.870Z,15.63
2023-02-28T21:36:17.040Z,16.88
2023-02-28T21:38:44.817Z,19.35
2023-02-28T21:41:16.729Z,17.58
2023-02-28T21:43:44.208Z,18.83
2023-02-28T21:46:13.176Z,19.15
2023-02-28T21:48:41.016Z,15.48
2023-02-28T21:51:11.535Z,18.00
2023-02-28T21:53:39.273Z,19.25
2023-02-28T21:56:08.233Z,20.52
2023-02-28T21:58:35.511Z,17.23
2023-02-28T22:01:08.908Z,19.70
2023-02-28T22:03:36.278Z,18.42
2023-02-28T22:06:30.928Z,19.00
2023-02-28T22:08:59.506Z,17.67
2023-02-28T22:11:26.865Z,19.05
2023-02-28T22:13:56.097Z,16.98
2023-02-28T22:16:24.180Z,17.42
2023-02-28T22:18:51.648Z,17.58
2023-02-28T22:21:19.127Z,17.25
2023-02-28T22:23:46.496Z,17.27
2023-02-28T22:26:16.080Z,18.52
2023-02-28T22:28:43.419Z,18.95
2023-02-28T22:31:17.731Z,19.27
2023-02-28T22:33:45.290Z,17.27
2023-02-28T22:36:15.901Z,18.10
2023-02-28T22:38:43.697Z,17.83
2023-02-28T22:41:11.891Z,17.10
2023-02-28T22:43:40.160Z,16.08
2023-02-28T22:46:08.322Z,16.90
2023-02-28T22:48:35.964Z,17.30
2023-02-28T22:51:13.103Z,16.23
2023-02-28T22:53:41.022Z,19.52
2023-02-28T22:56:09.522Z,17.05
2023-02-28T22:58:37.001Z,16.10
2023-02-28T23:01:11.757Z,19.48
2023-02-28T23:03:39.184Z,19.17
2023-02-28T23:06:27.984Z,16.33
2023-02-28T23:08:57.054Z,19.60
2023-02-28T23:11:43.126Z,18.85
2023-02-28T23:14:12.697Z,18.23
2023-02-28T23:16:47.183Z,18.92
2023-02-28T23:19:18.952Z,17.80
2023-02-28T23:21:46.286Z,21.00
2023-02-28T23:24:14.593Z,20.00
2023-02-28T23:26:46.459Z,19.63
2023-02-28T23:29:13.961Z,20.13
2023-02-28T23:31:41.275Z,19.85
2023-02-28T23:34:08.600Z,20.05
2023-02-28T23:36:35.850Z,21.65
2023-02-28T23:39:03.159Z,21.70
2023-02-28T23:41:30.435Z,23.10
2023-02-28T23:43:57.942Z,21.15
2023-02-28T23:46:25.218Z,22.55
2023-02-28T23:48:52.527Z,20.48
2023-02-28T23:51:20.559Z,21.45
2023-02-28T23:53:51.657Z,20.25
2023-02-28T23:56:21.966Z,18.92
2023-02-28T23:58:49.383Z,22.50
